Terminal Aerodrome Forecast
Issued by NWS Portland, ME

Home | Current Version | Previous Version | Text Only | Print | Product List | Glossary On
Versions: 1 2 3 4 5 6 7 8 9 10 11 12 13 14 15 16 17 18 19 20 21
923
FTUS41 KGYX 240623 AAA
TAFCON
TAF AMD
KCON 240623Z 2406/2506 19005KT 6SM -SHRA BR BKN020
     FM241400 29012G20KT P6SM BKN050
     FM242100 28005KT P6SM SCT250=

USA.gov is the U.S. government's official web portal to all federal, state and local government web resources and services.